Time;durP1;ratioP1;P1;durP2;ratioP2;P2;SDS_P1;SDS_P2;PMS_P1;PMS_P2;Temp;Humidity;BMP_temperature;BMP_pressure;BME280_temperature;BME280_humidity;BME280_pressure;Samples;Min_cycle;Max_cycle;Signal;HPM_P1;HPM_P2
2023/05/23 00:01:36;;;;;;;21.30;9.77;;;;;;;;;;4989843;28;20048;-71
2023/05/23 00:04:02;;;;;;;20.92;10.82;;;;;;;;;;4987055;28;20014;-71
2023/05/23 00:06:27;;;;;;;19.70;10.18;;;;;;;;;;4979813;28;20077;-71
2023/05/23 00:08:52;;;;;;;18.70;10.13;;;;;;;;;;4985271;28;20026;-71
2023/05/23 00:11:19;;;;;;;17.30;10.25;;;;;;;;;;4986235;28;20022;-71
2023/05/23 00:13:44;;;;;;;21.10;9.95;;;;;;;;;;4986063;28;20028;-71
2023/05/23 00:16:09;;;;;;;14.88;9.02;;;;;;;;;;4983144;28;20729;-71
2023/05/23 00:18:41;;;;;;;17.03;10.17;;;;;;;;;;4986483;28;20050;-71
2023/05/23 00:21:06;;;;;;;20.45;9.77;;;;;;;;;;4984351;28;20340;-71
2023/05/23 00:23:32;;;;;;;18.53;9.43;;;;;;;;;;4980835;28;20015;-71
2023/05/23 00:25:59;;;;;;;19.88;10.85;;;;;;;;;;4977878;28;20795;-71
2023/05/23 00:28:24;;;;;;;16.20;9.18;;;;;;;;;;4985940;28;20022;-71
2023/05/23 00:30:49;;;;;;;17.52;9.75;;;;;;;;;;4979914;28;20172;-71
2023/05/23 00:33:15;;;;;;;19.67;9.60;;;;;;;;;;4978852;28;20038;-71
2023/05/23 00:35:41;;;;;;;14.32;9.25;;;;;;;;;;4979351;28;20661;-71
2023/05/23 00:38:06;;;;;;;16.80;8.75;;;;;;;;;;4983411;28;20547;-71
2023/05/23 00:40:32;;;;;;;15.05;8.98;;;;;;;;;;4981103;28;20025;-71
2023/05/23 00:42:57;;;;;;;15.82;9.57;;;;;;;;;;4978580;28;20026;-71
2023/05/23 00:45:22;;;;;;;18.50;9.27;;;;;;;;;;4979461;28;20030;-71
2023/05/23 00:47:48;;;;;;;16.40;9.50;;;;;;;;;;4984602;28;20054;-71
2023/05/23 00:50:14;;;;;;;19.08;9.52;;;;;;;;;;4979339;28;20019;-71
2023/05/23 00:52:40;;;;;;;15.45;8.88;;;;;;;;;;4985112;28;20034;-71
2023/05/23 00:55:07;;;;;;;19.85;9.95;;;;;;;;;;4983618;28;20026;-71
2023/05/23 00:57:33;;;;;;;15.95;9.23;;;;;;;;;;4984071;28;20382;-70
2023/05/23 00:59:59;;;;;;;18.27;9.85;;;;;;;;;;4986335;28;20436;-70
2023/05/23 01:02:24;;;;;;;17.83;9.68;;;;;;;;;;4985393;28;20113;-70
2023/05/23 01:04:53;;;;;;;21.60;9.50;;;;;;;;;;4983003;28;20057;-70
2023/05/23 01:07:18;;;;;;;14.63;9.40;;;;;;;;;;4985180;28;20019;-70
2023/05/23 01:09:44;;;;;;;16.50;9.50;;;;;;;;;;4986532;28;20022;-70
2023/05/23 01:12:09;;;;;;;19.50;9.50;;;;;;;;;;4979944;28;20170;-70
2023/05/23 01:14:38;;;;;;;15.48;9.18;;;;;;;;;;4988416;28;20270;-70
2023/05/23 01:17:11;;;;;;;15.32;8.98;;;;;;;;;;4980927;28;20053;-70
2023/05/23 01:20:00;;;;;;;14.40;8.85;;;;;;;;;;4984905;28;20034;-70
2023/05/23 01:22:28;;;;;;;15.80;9.30;;;;;;;;;;4978014;28;20039;-70
2023/05/23 01:25:03;;;;;;;19.98;9.77;;;;;;;;;;4984335;28;20023;-70
2023/05/23 01:27:47;;;;;;;15.40;8.93;;;;;;;;;;4981898;28;20402;-70
2023/05/23 01:30:16;;;;;;;12.68;8.25;;;;;;;;;;4984226;28;20030;-70
2023/05/23 01:32:42;;;;;;;15.18;8.18;;;;;;;;;;4985082;28;20018;-70
2023/05/23 01:35:07;;;;;;;13.82;8.00;;;;;;;;;;4984211;28;20465;-70
2023/05/23 01:37:33;;;;;;;11.52;7.18;;;;;;;;;;4983669;28;20045;-70
2023/05/23 01:39:58;;;;;;;15.02;7.60;;;;;;;;;;4982222;28;20015;-70
2023/05/23 01:42:23;;;;;;;9.80;6.30;;;;;;;;;;4982166;28;20734;-70
2023/05/23 01:44:48;;;;;;;10.68;6.50;;;;;;;;;;4983868;28;20269;-70
2023/05/23 01:47:14;;;;;;;12.55;7.57;;;;;;;;;;4982076;28;20073;-70
2023/05/23 01:49:40;;;;;;;14.82;7.30;;;;;;;;;;4983112;28;20620;-70
2023/05/23 01:52:08;;;;;;;10.30;6.43;;;;;;;;;;4979864;28;20029;-70
2023/05/23 01:54:35;;;;;;;9.93;6.85;;;;;;;;;;4981402;28;20030;-70
2023/05/23 01:57:01;;;;;;;13.88;9.27;;;;;;;;;;4982090;28;20477;-70
2023/05/23 01:59:26;;;;;;;16.63;10.63;;;;;;;;;;4978735;28;20081;-70
2023/05/23 02:01:51;;;;;;;15.27;10.50;;;;;;;;;;4981684;28;20485;-70
2023/05/23 02:04:17;;;;;;;13.73;9.70;;;;;;;;;;4986069;28;20266;-70
2023/05/23 02:06:42;;;;;;;13.20;9.27;;;;;;;;;;4985982;28;20084;-70
2023/05/23 02:09:07;;;;;;;15.27;8.97;;;;;;;;;;4980684;28;20154;-70
2023/05/23 02:11:32;;;;;;;14.00;9.13;;;;;;;;;;4982860;28;20281;-70
2023/05/23 02:13:58;;;;;;;11.23;7.65;;;;;;;;;;4982159;28;20120;-70
2023/05/23 02:16:24;;;;;;;10.63;7.30;;;;;;;;;;4981479;28;20393;-70
2023/05/23 02:18:51;;;;;;;11.02;6.95;;;;;;;;;;4986719;28;20339;-70
2023/05/23 02:21:16;;;;;;;12.13;7.72;;;;;;;;;;4985008;28;20018;-70
2023/05/23 02:23:41;;;;;;;10.37;6.60;;;;;;;;;;4986145;28;20034;-70
2023/05/23 02:26:07;;;;;;;11.13;7.00;;;;;;;;;;4984761;28;20293;-70
2023/05/23 02:28:32;;;;;;;8.03;5.80;;;;;;;;;;4982274;28;20276;-70
2023/05/23 02:30:57;;;;;;;9.00;5.78;;;;;;;;;;4985136;28;20030;-70
2023/05/23 02:33:22;;;;;;;9.43;5.43;;;;;;;;;;4984992;28;20030;-70
2023/05/23 02:35:49;;;;;;;6.37;4.67;;;;;;;;;;4985030;28;20033;-70
2023/05/23 02:38:15;;;;;;;10.27;5.40;;;;;;;;;;4986126;28;20376;-70
2023/05/23 02:40:40;;;;;;;11.63;4.53;;;;;;;;;;4986484;28;20105;-70
2023/05/23 02:43:05;;;;;;;8.23;5.47;;;;;;;;;;4987035;28;20022;-70
2023/05/23 02:45:31;;;;;;;8.33;5.23;;;;;;;;;;4990280;28;20556;-70
2023/05/23 02:47:56;;;;;;;9.30;4.93;;;;;;;;;;4983058;28;20281;-70
2023/05/23 02:50:21;;;;;;;9.57;4.67;;;;;;;;;;4988257;28;20524;-70
2023/05/23 02:52:46;;;;;;;9.65;4.57;;;;;;;;;;4987459;28;20265;-70
2023/05/23 02:55:11;;;;;;;5.80;3.80;;;;;;;;;;4990524;28;20029;-70
2023/05/23 02:57:36;;;;;;;7.67;4.17;;;;;;;;;;4987560;28;20280;-70
2023/05/23 03:00:02;;;;;;;7.97;4.53;;;;;;;;;;4989262;28;20496;-70
2023/05/23 03:02:27;;;;;;;9.60;4.10;;;;;;;;;;4990972;28;20289;-70
2023/05/23 03:04:52;;;;;;;8.43;4.47;;;;;;;;;;4987757;28;20022;-70
2023/05/23 03:07:17;;;;;;;10.47;4.47;;;;;;;;;;4990344;28;20037;-70
2023/05/23 03:09:42;;;;;;;10.03;4.73;;;;;;;;;;4987468;28;20309;-70
2023/05/23 03:12:08;;;;;;;7.67;4.43;;;;;;;;;;4990862;28;20300;-70
2023/05/23 03:14:33;;;;;;;9.35;4.32;;;;;;;;;;4988495;28;20290;-70
2023/05/23 03:16:58;;;;;;;9.98;4.47;;;;;;;;;;4988200;28;20042;-70
2023/05/23 03:19:23;;;;;;;5.83;3.87;;;;;;;;;;4989587;28;20022;-70
2023/05/23 03:21:50;;;;;;;11.60;5.07;;;;;;;;;;4989595;28;20656;-70
2023/05/23 03:24:15;;;;;;;8.73;5.05;;;;;;;;;;4991058;28;20328;-70
2023/05/23 03:26:40;;;;;;;11.50;4.90;;;;;;;;;;4985793;28;20421;-70
2023/05/23 03:29:06;;;;;;;10.37;4.40;;;;;;;;;;4988764;28;20114;-70
2023/05/23 03:31:31;;;;;;;12.02;5.18;;;;;;;;;;4991093;28;20269;-70
2023/05/23 03:33:56;;;;;;;8.18;4.72;;;;;;;;;;4981089;28;20026;-70
2023/05/23 03:36:24;;;;;;;11.32;5.22;;;;;;;;;;4979871;28;20085;-70
2023/05/23 03:38:50;;;;;;;8.52;5.20;;;;;;;;;;4988754;28;20508;-70
2023/05/23 03:41:15;;;;;;;9.55;5.18;;;;;;;;;;4985314;28;20038;-70
2023/05/23 03:43:40;;;;;;;12.32;6.47;;;;;;;;;;4987394;28;20045;-70
2023/05/23 03:46:05;;;;;;;16.38;7.00;;;;;;;;;;4987882;28;20018;-70
2023/05/23 03:48:30;;;;;;;14.38;6.78;;;;;;;;;;4984910;28;20089;-71
2023/05/23 03:50:56;;;;;;;17.07;7.17;;;;;;;;;;4980906;28;20027;-71
2023/05/23 03:53:21;;;;;;;13.07;7.47;;;;;;;;;;4987728;28;21154;-70
2023/05/23 03:55:46;;;;;;;15.70;7.63;;;;;;;;;;4988325;28;20285;-70
2023/05/23 03:58:11;;;;;;;14.87;7.90;;;;;;;;;;4985677;28;20287;-70
2023/05/23 04:00:36;;;;;;;16.00;7.87;;;;;;;;;;4987984;28;20692;-70
2023/05/23 04:03:01;;;;;;;16.87;8.07;;;;;;;;;;4988785;28;20022;-70
2023/05/23 04:05:26;;;;;;;14.40;6.87;;;;;;;;;;4987990;28;20266;-70
2023/05/23 04:07:52;;;;;;;16.83;7.73;;;;;;;;;;4988764;28;20319;-70
2023/05/23 04:10:17;;;;;;;18.42;8.48;;;;;;;;;;4989356;28;20272;-70
2023/05/23 04:12:43;;;;;;;20.08;8.27;;;;;;;;;;4989774;28;20034;-70
2023/05/23 04:15:08;;;;;;;14.27;7.68;;;;;;;;;;4989049;28;20022;-70
2023/05/23 04:17:34;;;;;;;15.13;7.65;;;;;;;;;;4987231;28;20022;-70
2023/05/23 04:19:59;;;;;;;16.67;7.72;;;;;;;;;;4986079;28;20118;-70
2023/05/23 04:22:24;;;;;;;12.85;6.97;;;;;;;;;;4989659;28;20160;-70
2023/05/23 04:24:50;;;;;;;13.98;7.63;;;;;;;;;;4989684;28;20025;-70
2023/05/23 04:27:15;;;;;;;13.23;7.37;;;;;;;;;;4987698;28;20018;-70
2023/05/23 04:29:40;;;;;;;11.07;6.13;;;;;;;;;;4986371;28;20857;-70
2023/05/23 04:32:06;;;;;;;14.07;6.15;;;;;;;;;;4987731;28;20028;-70
2023/05/23 04:34:34;;;;;;;10.95;5.43;;;;;;;;;;4986272;28;20113;-70
2023/05/23 04:37:03;;;;;;;10.45;5.75;;;;;;;;;;4989640;28;20042;-70
2023/05/23 04:39:28;;;;;;;16.70;6.22;;;;;;;;;;4987683;28;20026;-70
2023/05/23 04:41:54;;;;;;;17.20;8.73;;;;;;;;;;4987117;28;20034;-70
2023/05/23 04:44:19;;;;;;;14.30;7.07;;;;;;;;;;4988820;28;20018;-70
2023/05/23 04:46:44;;;;;;;16.95;7.55;;;;;;;;;;4988273;28;20503;-71
2023/05/23 04:49:10;;;;;;;19.13;8.10;;;;;;;;;;4987485;28;20097;-70
2023/05/23 04:51:35;;;;;;;17.35;9.50;;;;;;;;;;4985941;28;20429;-70
2023/05/23 04:54:01;;;;;;;13.80;8.73;;;;;;;;;;4988244;28;20555;-71
2023/05/23 04:56:27;;;;;;;15.80;8.80;;;;;;;;;;4988318;28;20289;-71
2023/05/23 04:58:52;;;;;;;14.32;7.65;;;;;;;;;;4985508;28;20014;-71
2023/05/23 05:01:17;;;;;;;14.93;7.55;;;;;;;;;;4979688;28;20492;-71
2023/05/23 05:03:42;;;;;;;32.87;10.23;;;;;;;;;;4985582;28;20026;-71
2023/05/23 05:06:08;;;;;;;13.97;7.97;;;;;;;;;;4983941;28;20284;-71
2023/05/23 05:08:33;;;;;;;20.40;7.88;;;;;;;;;;4987871;28;20357;-71
2023/05/23 05:10:58;;;;;;;17.93;7.67;;;;;;;;;;4984801;28;20083;-71
2023/05/23 05:13:23;;;;;;;12.27;6.37;;;;;;;;;;4986161;28;20273;-71
2023/05/23 05:15:48;;;;;;;12.27;7.43;;;;;;;;;;4982394;28;20273;-71
2023/05/23 05:18:13;;;;;;;13.40;7.37;;;;;;;;;;4985576;28;20752;-71
2023/05/23 05:20:39;;;;;;;13.33;6.60;;;;;;;;;;4984717;28;20289;-71
2023/05/23 05:23:04;;;;;;;14.77;6.27;;;;;;;;;;4984713;28;20265;-71
2023/05/23 05:25:31;;;;;;;19.50;6.77;;;;;;;;;;4984499;28;20272;-71
2023/05/23 05:27:57;;;;;;;12.68;6.45;;;;;;;;;;4980477;28;20270;-71
2023/05/23 05:30:22;;;;;;;18.05;6.95;;;;;;;;;;4978049;28;20521;-71
2023/05/23 05:32:48;;;;;;;17.03;7.70;;;;;;;;;;4982594;28;20098;-71
2023/05/23 05:35:13;;;;;;;24.98;9.10;;;;;;;;;;4978854;28;20274;-71
2023/05/23 05:37:38;;;;;;;21.27;8.77;;;;;;;;;;4983569;28;20412;-71
2023/05/23 05:40:06;;;;;;;26.88;9.15;;;;;;;;;;4977169;28;20385;-71
2023/05/23 05:42:31;;;;;;;19.23;8.63;;;;;;;;;;4980587;28;20053;-71
2023/05/23 05:44:56;;;;;;;17.33;8.47;;;;;;;;;;4977640;28;20046;-71
2023/05/23 05:47:21;;;;;;;14.32;7.88;;;;;;;;;;4987677;28;20273;-71
2023/05/23 05:49:46;;;;;;;16.70;7.77;;;;;;;;;;4985042;28;20022;-71
2023/05/23 05:52:12;;;;;;;18.57;8.30;;;;;;;;;;4985659;28;20273;-71
2023/05/23 05:54:37;;;;;;;17.70;8.43;;;;;;;;;;4985161;28;20269;-71
2023/05/23 05:57:02;;;;;;;22.10;9.37;;;;;;;;;;4984938;28;20381;-71
2023/05/23 05:59:27;;;;;;;21.88;8.23;;;;;;;;;;4987156;28;20277;-71
2023/05/23 06:01:52;;;;;;;21.15;9.60;;;;;;;;;;4978483;28;20018;-71
2023/05/23 06:04:18;;;;;;;19.73;10.57;;;;;;;;;;4980073;28;20022;-71
2023/05/23 06:06:43;;;;;;;23.98;11.13;;;;;;;;;;4981599;28;20018;-70
2023/05/23 06:09:09;;;;;;;24.40;12.03;;;;;;;;;;4985687;28;20086;-69
2023/05/23 06:11:38;;;;;;;23.10;11.85;;;;;;;;;;4985024;28;20316;-69
2023/05/23 06:14:03;;;;;;;23.55;10.88;;;;;;;;;;4979900;28;20037;-69
2023/05/23 06:16:28;;;;;;;26.75;11.77;;;;;;;;;;4982658;28;20564;-69
2023/05/23 06:18:53;;;;;;;18.43;10.00;;;;;;;;;;4990145;28;20506;-69
2023/05/23 06:21:18;;;;;;;25.93;12.63;;;;;;;;;;4989850;28;20383;-70
2023/05/23 06:23:43;;;;;;;28.33;13.73;;;;;;;;;;4989429;28;20269;-70
2023/05/23 06:26:09;;;;;;;29.65;15.23;;;;;;;;;;4992395;28;20277;-70
2023/05/23 06:28:36;;;;;;;26.35;14.00;;;;;;;;;;4990917;28;20018;-70
2023/05/23 06:31:01;;;;;;;29.27;16.10;;;;;;;;;;4992872;28;20034;-70
2023/05/23 06:33:27;;;;;;;24.37;13.83;;;;;;;;;;4992649;28;20377;-70
2023/05/23 06:35:52;;;;;;;32.03;13.80;;;;;;;;;;4985906;28;20336;-70
2023/05/23 06:38:17;;;;;;;31.70;13.13;;;;;;;;;;4989291;28;20271;-70
2023/05/23 06:40:42;;;;;;;22.80;12.63;;;;;;;;;;4989554;28;20054;-70
2023/05/23 06:43:07;;;;;;;21.97;12.47;;;;;;;;;;4988103;28;20760;-70
2023/05/23 06:45:34;;;;;;;24.50;12.13;;;;;;;;;;4987223;28;20285;-70
2023/05/23 06:48:00;;;;;;;24.05;12.57;;;;;;;;;;4980693;28;20699;-70
2023/05/23 06:50:25;;;;;;;23.50;11.98;;;;;;;;;;4984762;28;20122;-70
2023/05/23 06:52:50;;;;;;;18.77;10.73;;;;;;;;;;4989355;28;20018;-69
2023/05/23 06:55:18;;;;;;;25.93;10.40;;;;;;;;;;4987439;28;20320;-69
2023/05/23 06:57:43;;;;;;;25.42;11.40;;;;;;;;;;4986848;28;20645;-69
2023/05/23 07:00:09;;;;;;;20.52;11.50;;;;;;;;;;4988768;28;20749;-69
2023/05/23 07:02:34;;;;;;;25.67;11.10;;;;;;;;;;4985933;28;20072;-69
2023/05/23 07:04:59;;;;;;;25.88;11.65;;;;;;;;;;4990030;28;20028;-69
2023/05/23 07:07:24;;;;;;;25.67;11.85;;;;;;;;;;4991653;28;20061;-70
2023/05/23 07:09:50;;;;;;;23.27;12.63;;;;;;;;;;4992541;28;20465;-70
2023/05/23 07:12:15;;;;;;;21.70;11.67;;;;;;;;;;4988356;28;20300;-69
2023/05/23 07:14:40;;;;;;;17.30;10.33;;;;;;;;;;4986604;28;20296;-69
2023/05/23 07:17:05;;;;;;;19.35;9.65;;;;;;;;;;4988166;28;20442;-69
2023/05/23 07:19:31;;;;;;;18.92;10.25;;;;;;;;;;4991626;28;20049;-70
2023/05/23 07:21:56;;;;;;;19.30;10.13;;;;;;;;;;4993502;28;20424;-70
2023/05/23 07:24:21;;;;;;;22.93;10.73;;;;;;;;;;4986438;28;20278;-70
2023/05/23 07:26:46;;;;;;;17.95;10.95;;;;;;;;;;4992626;28;20258;-69
2023/05/23 07:29:11;;;;;;;23.73;13.37;;;;;;;;;;4992998;28;20056;-69
2023/05/23 07:31:37;;;;;;;26.90;13.55;;;;;;;;;;4993458;28;20258;-69
2023/05/23 07:34:02;;;;;;;28.83;14.77;;;;;;;;;;4990027;28;20038;-69
2023/05/23 07:36:28;;;;;;;29.63;15.30;;;;;;;;;;4992300;28;20722;-69
2023/05/23 07:38:53;;;;;;;24.17;15.75;;;;;;;;;;4993675;28;20022;-69
2023/05/23 07:41:18;;;;;;;24.47;14.67;;;;;;;;;;4992508;28;20382;-69
2023/05/23 07:43:43;;;;;;;21.90;14.37;;;;;;;;;;4989062;28;20277;-71
2023/05/23 07:46:09;;;;;;;25.60;14.97;;;;;;;;;;4987954;28;20286;-70
2023/05/23 07:48:34;;;;;;;23.83;13.93;;;;;;;;;;4993079;28;20340;-69
2023/05/23 07:50:59;;;;;;;22.30;12.37;;;;;;;;;;4993380;28;20279;-69
2023/05/23 07:53:25;;;;;;;22.50;11.35;;;;;;;;;;4988758;28;20109;-69
2023/05/23 07:55:50;;;;;;;20.35;9.85;;;;;;;;;;4988334;28;20393;-69
2023/05/23 07:58:15;;;;;;;23.53;8.97;;;;;;;;;;4988375;28;20030;-69
2023/05/23 08:00:40;;;;;;;18.70;9.43;;;;;;;;;;4991090;28;20030;-69
2023/05/23 08:03:06;;;;;;;20.23;10.32;;;;;;;;;;4990653;28;20026;-69
2023/05/23 08:05:31;;;;;;;18.30;10.55;;;;;;;;;;4990960;28;20469;-69
2023/05/23 08:07:56;;;;;;;20.20;10.17;;;;;;;;;;4992869;28;20358;-69
2023/05/23 08:10:21;;;;;;;15.60;10.23;;;;;;;;;;4991775;28;20030;-69
2023/05/23 08:12:47;;;;;;;20.95;10.90;;;;;;;;;;4992054;28;20021;-69
2023/05/23 08:15:12;;;;;;;23.33;11.23;;;;;;;;;;4991697;28;20416;-69
2023/05/23 08:17:37;;;;;;;19.20;12.10;;;;;;;;;;4992467;28;20022;-69
2023/05/23 08:20:04;;;;;;;21.55;10.93;;;;;;;;;;4992160;28;20273;-69
2023/05/23 08:22:29;;;;;;;21.33;10.63;;;;;;;;;;4990919;28;20034;-69
2023/05/23 08:24:54;;;;;;;23.13;11.07;;;;;;;;;;4992358;28;20057;-69
2023/05/23 08:27:20;;;;;;;17.48;10.30;;;;;;;;;;4991564;28;20465;-69
2023/05/23 08:29:45;;;;;;;19.83;9.68;;;;;;;;;;4984571;28;20523;-69
2023/05/23 08:32:10;;;;;;;16.77;9.27;;;;;;;;;;4984105;28;20237;-69
2023/05/23 08:34:35;;;;;;;20.83;10.77;;;;;;;;;;4984916;28;20767;-69
2023/05/23 08:37:00;;;;;;;15.30;9.50;;;;;;;;;;4982610;28;20266;-69
2023/05/23 08:39:25;;;;;;;24.53;10.83;;;;;;;;;;4980215;28;20624;-69
2023/05/23 08:41:51;;;;;;;18.90;10.50;;;;;;;;;;4978510;28;20285;-70
2023/05/23 08:44:16;;;;;;;20.23;10.50;;;;;;;;;;4983891;28;20305;-69
2023/05/23 08:46:45;;;;;;;20.05;10.02;;;;;;;;;;4984898;28;20015;-69
2023/05/23 08:49:13;;;;;;;19.67;10.63;;;;;;;;;;4985452;28;20549;-69
2023/05/23 08:51:41;;;;;;;18.20;10.23;;;;;;;;;;4990117;28;20017;-69
2023/05/23 08:54:08;;;;;;;19.60;10.35;;;;;;;;;;4982625;28;20730;-69
2023/05/23 08:56:33;;;;;;;16.75;10.13;;;;;;;;;;4984228;28;20026;-69
2023/05/23 08:58:59;;;;;;;18.55;9.35;;;;;;;;;;4987007;28;20365;-69
2023/05/23 09:01:25;;;;;;;25.80;10.82;;;;;;;;;;4990195;28;20019;-69
2023/05/23 09:03:50;;;;;;;25.67;10.93;;;;;;;;;;4989620;28;20026;-69
2023/05/23 09:06:17;;;;;;;20.15;10.52;;;;;;;;;;4987599;28;20041;-69
2023/05/23 09:08:45;;;;;;;23.70;12.25;;;;;;;;;;4988961;28;20022;-69
2023/05/23 09:11:11;;;;;;;19.52;11.27;;;;;;;;;;4989316;28;20444;-69
2023/05/23 09:13:38;;;;;;;28.95;14.02;;;;;;;;;;4989953;28;20725;-69
2023/05/23 09:16:05;;;;;;;35.53;16.27;;;;;;;;;;4981378;28;20054;-69
2023/05/23 09:18:35;;;;;;;31.50;16.48;;;;;;;;;;4985386;28;20066;-69
2023/05/23 09:21:01;;;;;;;35.58;17.67;;;;;;;;;;4983746;28;20122;-69
2023/05/23 09:23:28;;;;;;;34.10;17.33;;;;;;;;;;4981277;28;20565;-69
2023/05/23 09:25:53;;;;;;;46.80;23.83;;;;;;;;;;4988686;28;20433;-69
2023/05/23 09:28:18;;;;;;;48.67;26.30;;;;;;;;;;4989337;28;20018;-69
2023/05/23 09:30:44;;;;;;;50.93;28.03;;;;;;;;;;4988193;28;20029;-69
2023/05/23 09:33:10;;;;;;;51.73;26.20;;;;;;;;;;4988171;28;20672;-69
2023/05/23 09:35:42;;;;;;;50.58;25.73;;;;;;;;;;4989698;28;20262;-69
2023/05/23 09:38:07;;;;;;;49.88;24.52;;;;;;;;;;4988028;28;20065;-69
2023/05/23 09:40:33;;;;;;;47.10;23.90;;;;;;;;;;4981268;28;20047;-69
2023/05/23 09:43:02;;;;;;;49.55;24.08;;;;;;;;;;4988039;28;20019;-69
2023/05/23 09:45:29;;;;;;;49.83;27.20;;;;;;;;;;4989065;28;20014;-69
2023/05/23 09:47:55;;;;;;;57.88;29.65;;;;;;;;;;4988309;28;20492;-69
2023/05/23 09:50:21;;;;;;;59.30;28.42;;;;;;;;;;4987872;28;20022;-70
2023/05/23 09:52:46;;;;;;;64.28;29.98;;;;;;;;;;4982686;28;20046;-69
2023/05/23 09:55:12;;;;;;;62.60;29.58;;;;;;;;;;4989320;28;20025;-69
2023/05/23 09:57:39;;;;;;;61.05;28.65;;;;;;;;;;4983225;28;20029;-69
2023/05/23 10:00:05;;;;;;;67.05;29.83;;;;;;;;;;4988884;28;20030;-69
2023/05/23 10:02:47;;;;;;;62.63;27.63;;;;;;;;;;4986845;28;21009;-69
2023/05/23 10:05:16;;;;;;;62.92;28.70;;;;;;;;;;4983726;28;20019;-69
2023/05/23 10:07:42;;;;;;;70.35;30.42;;;;;;;;;;4981062;28;20061;-69
2023/05/23 10:10:09;;;;;;;59.35;29.77;;;;;;;;;;4985352;28;20019;-69
2023/05/23 10:12:48;;;;;;;55.78;26.67;;;;;;;;;;4989625;28;20238;-69
2023/05/23 10:15:16;;;;;;;55.03;25.65;;;;;;;;;;4982433;28;20129;-69
2023/05/23 10:18:16;;;;;;;49.97;24.10;;;;;;;;;;4988217;28;20034;-69
2023/05/23 10:20:43;;;;;;;51.05;23.58;;;;;;;;;;4969995;28;20396;-70
2023/05/23 10:23:09;;;;;;;44.63;23.98;;;;;;;;;;4987833;28;20054;-69
2023/05/23 10:25:35;;;;;;;41.40;21.52;;;;;;;;;;4988198;28;20453;-69
2023/05/23 10:28:01;;;;;;;42.13;21.50;;;;;;;;;;4983210;28;20105;-68
2023/05/23 10:30:26;;;;;;;42.45;22.20;;;;;;;;;;4983908;28;20457;-68
2023/05/23 10:32:52;;;;;;;50.00;22.08;;;;;;;;;;4987954;28;20022;-68
2023/05/23 10:35:17;;;;;;;44.92;22.10;;;;;;;;;;4987987;28;20026;-68
2023/05/23 10:37:54;;;;;;;45.80;24.03;;;;;;;;;;4987548;28;20540;-68
2023/05/23 10:40:23;;;;;;;46.88;26.13;;;;;;;;;;4987306;28;20335;-69
2023/05/23 10:43:04;;;;;;;42.28;24.45;;;;;;;;;;4985646;28;20018;-70
2023/05/23 10:45:29;;;;;;;51.80;25.17;;;;;;;;;;4979026;28;20097;-67
2023/05/23 10:47:54;;;;;;;46.83;25.02;;;;;;;;;;4983984;28;20109;-68
2023/05/23 10:50:29;;;;;;;49.45;27.27;;;;;;;;;;4984480;28;20094;-68
2023/05/23 10:52:55;;;;;;;50.53;25.92;;;;;;;;;;4980758;28;20081;-68
2023/05/23 10:55:21;;;;;;;43.00;25.08;;;;;;;;;;4980839;28;20023;-67
2023/05/23 10:58:06;;;;;;;46.95;25.38;;;;;;;;;;4981233;28;20586;-68
2023/05/23 11:00:31;;;;;;;53.55;25.58;;;;;;;;;;4978838;28;20046;-67
2023/05/23 11:02:59;;;;;;;58.17;29.05;;;;;;;;;;4984982;28;20033;-69
2023/05/23 11:05:27;;;;;;;45.53;25.42;;;;;;;;;;4986445;28;20033;-69
2023/05/23 11:08:16;;;;;;;52.65;27.63;;;;;;;;;;4987707;28;20401;-69
2023/05/23 11:10:51;;;;;;;48.53;26.85;;;;;;;;;;4991911;28;20022;-69
2023/05/23 11:13:16;;;;;;;65.97;34.15;;;;;;;;;;4990286;28;20362;-69
2023/05/23 11:15:43;;;;;;;66.10;36.43;;;;;;;;;;4991471;28;20149;-69
2023/05/23 11:18:10;;;;;;;56.15;32.53;;;;;;;;;;4986879;28;20759;-69
2023/05/23 11:20:36;;;;;;;69.10;34.35;;;;;;;;;;4989207;28;20421;-69
2023/05/23 11:23:02;;;;;;;66.07;32.30;;;;;;;;;;4989941;28;20644;-69
2023/05/23 11:25:44;;;;;;;53.78;29.00;;;;;;;;;;4991272;28;20036;-71
2023/05/23 11:28:10;;;;;;;58.33;26.27;;;;;;;;;;4987685;28;20018;-72
2023/05/23 11:30:36;;;;;;;60.85;32.00;;;;;;;;;;4992072;28;20042;-69
2023/05/23 11:33:06;;;;;;;66.65;33.38;;;;;;;;;;4991057;28;20058;-69
2023/05/23 11:35:31;;;;;;;71.20;33.38;;;;;;;;;;4990886;28;20066;-69
2023/05/23 11:37:56;;;;;;;59.05;31.58;;;;;;;;;;4986639;28;20363;-69
2023/05/23 11:40:28;;;;;;;68.00;30.30;;;;;;;;;;4991402;28;20521;-69
2023/05/23 11:42:53;;;;;;;57.05;27.15;;;;;;;;;;4988083;28;20030;-69
2023/05/23 11:45:19;;;;;;;55.88;26.67;;;;;;;;;;4990866;28;20381;-69
2023/05/23 11:47:44;;;;;;;48.50;25.00;;;;;;;;;;4989790;28;20023;-70
2023/05/23 11:50:09;;;;;;;39.50;21.85;;;;;;;;;;4992562;28;20165;-70
2023/05/23 11:52:34;;;;;;;39.10;20.92;;;;;;;;;;4989134;28;20025;-71
2023/05/23 11:55:00;;;;;;;36.83;18.43;;;;;;;;;;4991553;28;20030;-69
2023/05/23 11:57:25;;;;;;;29.45;17.13;;;;;;;;;;4986713;28;20281;-71
2023/05/23 11:59:50;;;;;;;31.27;16.70;;;;;;;;;;4990052;28;20014;-69
2023/05/23 12:02:15;;;;;;;25.60;15.80;;;;;;;;;;4986961;28;20289;-69
2023/05/23 12:04:41;;;;;;;27.30;13.73;;;;;;;;;;4987112;28;20017;-69
2023/05/23 12:07:06;;;;;;;27.77;13.57;;;;;;;;;;4990767;28;20266;-69
2023/05/23 12:09:31;;;;;;;24.98;13.00;;;;;;;;;;4990338;28;20025;-68
2023/05/23 12:11:57;;;;;;;25.90;15.40;;;;;;;;;;4987929;28;20547;-69
2023/05/23 12:14:22;;;;;;;28.33;13.40;;;;;;;;;;4986672;28;20455;-69
2023/05/23 12:16:47;;;;;;;20.77;13.00;;;;;;;;;;4987694;28;20285;-69
2023/05/23 12:19:13;;;;;;;30.33;13.67;;;;;;;;;;4991210;28;20018;-69
2023/05/23 12:21:42;;;;;;;22.25;13.50;;;;;;;;;;4986217;28;20724;-69
2023/05/23 12:24:15;;;;;;;30.35;14.27;;;;;;;;;;4990703;28;20033;-69
2023/05/23 12:26:50;;;;;;;25.23;13.98;;;;;;;;;;4988527;28;21278;-70
2023/05/23 12:29:28;;;;;;;23.35;13.98;;;;;;;;;;4987504;28;20373;-70
2023/05/23 12:31:53;;;;;;;24.83;15.05;;;;;;;;;;4983827;28;20491;-70
2023/05/23 12:34:18;;;;;;;32.03;15.50;;;;;;;;;;4991386;28;20105;-70
2023/05/23 12:36:44;;;;;;;26.30;16.75;;;;;;;;;;4989626;28;20323;-70
2023/05/23 12:39:10;;;;;;;33.25;19.25;;;;;;;;;;4987951;28;20050;-70
2023/05/23 12:41:35;;;;;;;33.88;18.17;;;;;;;;;;4987848;28;21186;-70
2023/05/23 12:44:01;;;;;;;28.55;16.65;;;;;;;;;;4987183;28;20046;-70
2023/05/23 12:46:26;;;;;;;27.95;18.02;;;;;;;;;;4989725;28;20014;-71
2023/05/23 12:48:52;;;;;;;24.88;13.65;;;;;;;;;;4985347;28;20022;-70
2023/05/23 12:51:18;;;;;;;23.88;12.68;;;;;;;;;;4989879;28;20034;-70
2023/05/23 12:53:43;;;;;;;24.77;12.88;;;;;;;;;;4985360;28;20030;-70
2023/05/23 12:56:09;;;;;;;25.30;11.80;;;;;;;;;;4988548;28;20031;-70
2023/05/23 12:58:34;;;;;;;17.88;10.70;;;;;;;;;;4986318;28;20029;-70
2023/05/23 13:01:00;;;;;;;17.30;8.97;;;;;;;;;;4986648;28;20037;-70
2023/05/23 13:03:25;;;;;;;16.70;8.38;;;;;;;;;;4988692;28;20269;-70
2023/05/23 13:05:51;;;;;;;21.58;8.90;;;;;;;;;;4987488;28;20018;-70
2023/05/23 13:08:17;;;;;;;17.42;9.13;;;;;;;;;;4986263;28;20042;-70
2023/05/23 13:10:43;;;;;;;22.42;10.25;;;;;;;;;;4985183;28;20077;-70
2023/05/23 13:13:08;;;;;;;25.20;12.33;;;;;;;;;;4988856;28;20030;-70
2023/05/23 13:15:33;;;;;;;20.27;11.30;;;;;;;;;;4986600;28;20600;-71
2023/05/23 13:17:59;;;;;;;19.83;10.83;;;;;;;;;;4989506;28;20716;-70
2023/05/23 13:20:28;;;;;;;28.58;10.63;;;;;;;;;;4984023;28;20018;-70
2023/05/23 13:22:54;;;;;;;22.30;12.38;;;;;;;;;;4981812;28;20018;-70
2023/05/23 13:25:19;;;;;;;26.10;12.73;;;;;;;;;;4988083;28;20432;-70
2023/05/23 13:27:44;;;;;;;23.67;11.75;;;;;;;;;;4988601;28;20084;-70
2023/05/23 13:30:10;;;;;;;33.13;13.37;;;;;;;;;;4987762;28;20049;-70
2023/05/23 13:32:35;;;;;;;38.90;16.90;;;;;;;;;;4987577;28;20026;-70
2023/05/23 13:35:00;;;;;;;29.80;13.47;;;;;;;;;;4983636;28;20026;-70
2023/05/23 13:37:25;;;;;;;26.93;11.97;;;;;;;;;;4980363;28;20154;-70
2023/05/23 13:39:50;;;;;;;24.85;12.85;;;;;;;;;;4982597;28;20304;-70
2023/05/23 13:42:16;;;;;;;21.23;11.47;;;;;;;;;;4989247;28;20377;-71
2023/05/23 13:44:41;;;;;;;24.77;11.23;;;;;;;;;;4983387;28;20274;-70
2023/05/23 13:47:10;;;;;;;25.67;10.85;;;;;;;;;;4983522;28;20038;-70
2023/05/23 13:49:36;;;;;;;17.42;10.10;;;;;;;;;;4986650;28;20421;-70
2023/05/23 13:52:01;;;;;;;19.17;10.07;;;;;;;;;;4988355;28;20136;-70
2023/05/23 13:54:26;;;;;;;22.73;9.93;;;;;;;;;;4985435;28;20087;-70
2023/05/23 13:56:51;;;;;;;29.02;11.90;;;;;;;;;;4979949;28;20385;-70
2023/05/23 13:59:20;;;;;;;23.23;13.37;;;;;;;;;;4985187;28;20409;-70
2023/05/23 14:01:45;;;;;;;18.50;8.45;;;;;;;;;;4986491;28;20534;-70
2023/05/23 14:04:10;;;;;;;24.23;7.53;;;;;;;;;;4987349;28;20535;-70
2023/05/23 14:06:35;;;;;;;13.97;7.53;;;;;;;;;;4987166;28;20558;-70
2023/05/23 14:09:01;;;;;;;15.60;7.20;;;;;;;;;;4982884;28;20015;-70
2023/05/23 14:11:27;;;;;;;23.15;7.25;;;;;;;;;;4989259;28;20113;-70
2023/05/23 14:13:52;;;;;;;12.68;6.40;;;;;;;;;;4984721;28;20377;-70
2023/05/23 14:16:17;;;;;;;13.20;6.82;;;;;;;;;;4988792;28;20033;-70
2023/05/23 14:18:43;;;;;;;13.18;6.60;;;;;;;;;;4986086;28;20105;-70